Volgodonsk, Russia
Current Conditions -  °F | °C
As of 7:00 AM on Tuesday 23 Dec 2014 (Local Time) from URRR Reporting Station
Overcast Overcast  
Wind Chill: 26°   Ceiling: 2500
Heat Index: 36°   Visibility: 5mi
Dew Point: 32°   Wind: 16mph
Humidity: 87%   Direction: 210°SSW
Pressure: 29.77"   Gusts: NA
Location:  47.51°N, 42.15°E
Report Text: URRR 230400Z 21007MPS P8000 BKN025 OVC100 02/00 Q1008 22190050TEMPO 20011G16MPS 0500 +SHSN BKN002 BKN020CB
Loading
Personal Weather Stations






























Interactive Weather Map New forecast layout! Learn more

10-Day Weather Forecast

Advertisements
Track Severe Weather on mobile